AKST,Max TemperatureF,Mean TemperatureF,Min TemperatureF,Max Dew PointF,MeanDew PointF,Min DewpointF,Max Humidity, Mean Humidity, Min Humidity, Max Sea Level PressureIn, Mean Sea Level PressureIn, Min Sea Level PressureIn, Max VisibilityMiles, Mean VisibilityMiles, Min VisibilityMiles, Max Wind SpeedMPH, Mean Wind SpeedMPH, Max Gust SpeedMPH,PrecipitationIn, CloudCover, Events, WindDirDegrees
2011-12-1,45,42,39,42,38,32,93,82,67,30.54,30.27,30.02,10,8,2,26,17,46,1.28,8,Rain,167
2011-12-2,42,40,37,40,37,33,97,92,79,30.58,30.53,30.50,10,9,3,9,3,,0.12,8,Rain,154
2011-12-3,39,36,34,39,36,33,100,97,93,30.69,30.62,30.54,10,6,0,6,3,,0.00,7,Fog,138
2011-12-4,41,39,37,40,38,37,100,96,93,30.68,30.61,30.53,10,5,2,13,4,17,0.09,8,Rain,142
2011-12-5,46,42,39,45,40,29,100,91,67,30.52,30.33,30.12,10,5,2,23,13,31,0.45,7,Rain,142
2011-12-6,39,34,28,32,28,26,92,85,62,30.59,30.51,30.37,10,10,10,5,1,,0.00,2,,290
2011-12-7,32,28,24,28,26,22,96,88,82,30.61,30.58,30.53,10,10,10,4,1,,0.00,1,,202
2011-12-8,39,36,32,38,33,27,100,92,82,30.53,30.44,30.33,10,6,2,13,5,,0.15,8,Rain,158
2011-12-9,41,39,37,40,38,35,100,94,89,30.32,30.10,29.85,10,5,2,18,10,25,1.15,8,Rain,142
2011-12-10,41,36,32,37,35,30,96,91,82,30.26,30.06,29.88,10,10,10,12,5,,0.02,7,Rain,327
2011-12-11,35,34,33,34,32,30,100,92,87,30.35,30.28,30.19,10,9,4,15,3,17,0.03,8,Rain-Snow,151
2011-12-12,36,34,33,36,33,32,100,95,92,30.15,30.01,29.91,10,5,1,20,11,26,0.76,8,Rain-Snow,145
2011-12-13,37,34,32,34,32,30,100,92,82,30.10,29.96,29.85,10,10,3,8,4,,0.00,5,,287
2011-12-14,34,30,25,31,29,23,92,89,82,30.11,30.05,29.99,10,10,10,7,2,,0.00,5,,267
2011-12-15,34,30,26,34,29,25,100,91,81,30.15,30.12,30.08,10,7,1,13,5,24,0.13,6,Rain-Snow,153
2011-12-16,37,35,33,37,35,33,100,96,92,30.06,29.96,29.86,10,5,2,7,3,,0.83,8,Rain,134
2011-12-17,39,34,30,37,35,30,100,95,89,30.23,30.00,29.89,10,10,2,9,3,,0.01,7,Rain,311
2011-12-18,41,36,30,39,33,30,100,92,81,30.29,30.17,30.00,10,6,0,22,8,34,0.88,7,Fog-Rain,144
2011-12-19,48,44,39,46,40,36,100,89,71,29.96,29.71,29.54,10,6,1,22,15,40,1.17,8,Rain,140
2011-12-20,43,38,33,36,34,31,96,85,73,30.44,30.25,29.86,10,9,2,17,6,31,0.05,6,Rain,305
2011-12-21,43,38,33,42,35,33,100,91,83,30.46,30.26,30.02,10,9,3,28,9,34,0.65,8,Rain,146
2011-12-22,45,42,39,42,38,36,97,83,71,29.99,29.65,29.39,10,9,4,34,23,51,0.63,8,Rain,138
2011-12-23,45,41,37,42,36,32,93,84,70,30.04,29.89,29.58,10,8,3,21,7,38,0.83,7,Rain,150
2011-12-24,46,42,39,43,40,37,93,89,81,30.04,29.76,29.65,10,9,4,20,8,44,0.72,8,Rain,146
2011-12-25,43,38,33,40,35,30,100,89,76,29.89,29.70,29.51,10,8,2,15,7,22,0.54,8,Rain,159
2011-12-26,42,38,33,39,33,23,100,84,61,29.81,29.47,29.21,10,8,2,37,19,52,0.52,7,Rain-Snow,142
2011-12-27,37,34,32,33,30,26,100,86,67,29.80,29.58,28.99,10,8,0,20,7,30,0.37,7,Fog-Rain-Snow,145
2011-12-28,44,38,33,43,36,29,96,87,70,29.45,29.06,28.90,10,8,3,26,10,40,0.69,7,Rain-Snow,152
2011-12-29,36,33,30,30,27,22,93,81,61,29.73,29.56,29.26,10,9,1,7,4,16,0.01,6,Snow,253
2011-12-30,34,30,26,30,25,21,93,77,66,30.06,29.66,29.25,10,8,1,17,9,24,0.05,7,Snow,310
2011-12-31,36,32,28,30,27,16,100,82,46,30.21,30.11,29.91,10,7,1,21,6,34,0.04,8,Snow,155